createdAt,value
2018-10-02T00:02:11.827Z,6.53
2018-10-02T00:04:39.935Z,6.54
2018-10-02T00:07:08.017Z,6.53
2018-10-02T00:09:36.095Z,6.54
2018-10-02T00:12:09.686Z,6.51
2018-10-02T00:14:37.767Z,6.53
2018-10-02T00:17:05.823Z,6.54
2018-10-02T00:19:33.896Z,6.52
2018-10-02T00:22:01.974Z,6.55
2018-10-02T00:24:30.030Z,6.54
2018-10-02T00:26:58.094Z,6.53
2018-10-02T00:29:26.226Z,6.49
2018-10-02T00:31:54.376Z,6.49
2018-10-02T00:34:22.370Z,6.52
2018-10-02T00:36:50.438Z,6.45
2018-10-02T00:39:18.548Z,6.53
2018-10-02T00:41:46.634Z,6.54
2018-10-02T00:44:14.725Z,6.64
2018-10-02T00:46:42.805Z,6.74
2018-10-02T00:49:10.874Z,6.66
2018-10-02T00:51:38.959Z,6.75
2018-10-02T00:54:07.007Z,6.80
2018-10-02T00:56:35.069Z,6.89
2018-10-02T00:59:03.142Z,6.91
2018-10-02T01:01:31.254Z,6.89
2018-10-02T01:03:59.383Z,6.89
2018-10-02T01:06:27.447Z,6.83
2018-10-02T01:08:55.507Z,6.83
2018-10-02T01:11:23.579Z,6.86
2018-10-02T01:13:51.747Z,6.80
2018-10-02T01:16:19.821Z,6.87
2018-10-02T01:18:47.909Z,6.84
2018-10-02T01:21:15.973Z,6.76
2018-10-02T01:23:44.063Z,6.79
2018-10-02T01:26:12.136Z,6.77
2018-10-02T01:28:40.198Z,6.71
2018-10-02T01:31:08.289Z,6.64
2018-10-02T01:33:36.388Z,6.71
2018-10-02T01:36:05.278Z,6.71
2018-10-02T01:38:33.365Z,6.72
2018-10-02T01:41:01.421Z,6.72
2018-10-02T01:43:29.519Z,6.72
2018-10-02T01:45:57.586Z,6.75
2018-10-02T01:48:25.666Z,6.86
2018-10-02T01:50:53.723Z,6.88
2018-10-02T01:53:21.827Z,6.88
2018-10-02T01:55:49.890Z,6.85
2018-10-02T01:58:17.968Z,6.87
2018-10-02T02:00:46.059Z,6.90
2018-10-02T02:03:14.154Z,6.98
2018-10-02T02:05:42.286Z,6.95
2018-10-02T02:08:10.359Z,6.96
2018-10-02T02:10:38.430Z,6.80
2018-10-02T02:13:06.507Z,6.79
2018-10-02T02:15:34.571Z,6.78
2018-10-02T02:18:03.300Z,6.72
2018-10-02T02:20:31.405Z,6.65
2018-10-02T02:22:59.459Z,6.66
2018-10-02T02:25:27.539Z,6.58
2018-10-02T02:27:55.635Z,6.54
2018-10-02T02:30:23.704Z,6.63
2018-10-02T02:32:51.827Z,6.57
2018-10-02T02:35:19.878Z,6.54
2018-10-02T02:37:47.967Z,6.57
2018-10-02T02:40:16.332Z,6.61
2018-10-02T02:42:44.487Z,6.61
2018-10-02T02:45:12.575Z,6.55
2018-10-02T02:47:46.008Z,6.58
2018-10-02T02:50:19.418Z,6.60
2018-10-02T02:52:50.592Z,6.57
2018-10-02T02:55:18.679Z,6.69
2018-10-02T02:57:46.767Z,6.72
2018-10-02T03:00:14.862Z,6.58
2018-10-02T03:02:42.917Z,6.56
2018-10-02T03:05:10.957Z,6.52
2018-10-02T03:07:39.057Z,6.52
2018-10-02T03:10:07.140Z,6.42
2018-10-02T03:12:36.231Z,6.37
2018-10-02T03:15:04.387Z,6.32
2018-10-02T03:17:32.489Z,6.37
2018-10-02T03:20:00.570Z,6.29
2018-10-02T03:22:28.679Z,6.38
2018-10-02T03:24:56.767Z,6.33
2018-10-02T03:27:24.823Z,6.32
2018-10-02T03:29:52.904Z,6.31
2018-10-02T03:32:20.996Z,6.30
2018-10-02T03:34:49.079Z,6.23
2018-10-02T03:37:17.145Z,6.19
2018-10-02T03:39:45.327Z,6.28
2018-10-02T03:42:13.871Z,6.37
2018-10-02T03:44:42.022Z,6.39
2018-10-02T03:47:10.116Z,6.45
2018-10-02T03:49:38.187Z,6.55
2018-10-02T03:52:06.254Z,6.50
2018-10-02T03:54:34.288Z,6.43
2018-10-02T03:57:02.346Z,6.44
2018-10-02T03:59:30.408Z,6.56
2018-10-02T04:01:58.481Z,6.50
2018-10-02T04:04:26.535Z,6.49
2018-10-02T04:06:54.596Z,6.42
2018-10-02T04:09:22.642Z,6.53
2018-10-02T04:11:50.805Z,6.58
2018-10-02T04:14:18.876Z,6.52
2018-10-02T04:16:46.948Z,6.43
2018-10-02T04:19:15.010Z,6.41
2018-10-02T04:21:43.120Z,6.51
2018-10-02T04:24:11.174Z,6.52
2018-10-02T04:26:39.272Z,6.46
2018-10-02T04:29:07.751Z,6.47
2018-10-02T04:31:36.954Z,6.46
2018-10-02T04:34:05.293Z,6.55
2018-10-02T04:36:33.315Z,6.54
2018-10-02T04:39:01.410Z,6.58
2018-10-02T04:41:29.473Z,6.51
2018-10-02T04:43:57.539Z,6.51
2018-10-02T04:46:25.602Z,6.66
2018-10-02T04:48:53.659Z,6.52
2018-10-02T04:51:21.735Z,6.69
2018-10-02T04:53:49.785Z,6.61
2018-10-02T04:56:17.951Z,6.60
2018-10-02T04:58:45.935Z,6.65
2018-10-02T05:01:14.006Z,6.63
2018-10-02T05:03:42.946Z,6.54
2018-10-02T05:06:11.052Z,6.66
2018-10-02T05:08:39.148Z,6.58
2018-10-02T05:11:07.178Z,6.67
2018-10-02T05:13:35.366Z,6.70
2018-10-02T05:16:03.435Z,6.72
2018-10-02T05:18:31.495Z,6.66
2018-10-02T05:20:59.583Z,6.64
2018-10-02T05:23:27.664Z,6.73
2018-10-02T05:25:55.730Z,6.68
2018-10-02T05:28:23.803Z,6.71
2018-10-02T05:30:51.893Z,6.73
2018-10-02T05:33:20.015Z,6.72
2018-10-02T05:35:48.080Z,6.82
2018-10-02T05:38:16.163Z,6.77
2018-10-02T05:40:44.227Z,6.80
2018-10-02T05:43:12.309Z,6.91
2018-10-02T05:45:40.394Z,6.87
2018-10-02T05:48:08.520Z,6.97
2018-10-02T05:50:36.641Z,7.01
2018-10-02T05:53:04.663Z,6.94
2018-10-02T05:55:32.739Z,7.09
2018-10-02T05:58:00.809Z,7.05
2018-10-02T06:00:28.900Z,7.07
2018-10-02T06:02:57.012Z,7.18
2018-10-02T06:05:25.105Z,7.07
2018-10-02T06:07:53.350Z,7.01
2018-10-02T06:10:21.433Z,6.85
2018-10-02T06:12:49.519Z,6.90
2018-10-02T06:15:17.610Z,6.98
2018-10-02T06:17:45.721Z,6.98
2018-10-02T06:20:13.784Z,7.07
2018-10-02T06:22:41.883Z,7.01
2018-10-02T06:25:09.969Z,7.12
2018-10-02T06:27:38.078Z,7.05
2018-10-02T06:30:06.167Z,7.20
2018-10-02T06:32:34.295Z,7.15
2018-10-02T06:35:09.023Z,7.16
2018-10-02T06:37:37.111Z,7.08
2018-10-02T06:40:05.191Z,7.10
2018-10-02T06:42:33.317Z,7.11
2018-10-02T06:45:01.427Z,7.15
2018-10-02T06:47:29.490Z,7.23
2018-10-02T06:49:57.579Z,7.06
2018-10-02T06:52:25.949Z,7.08
2018-10-02T06:54:53.749Z,7.22
2018-10-02T06:57:21.881Z,7.14
2018-10-02T06:59:49.998Z,7.16
2018-10-02T07:02:18.087Z,7.15
2018-10-02T07:04:46.188Z,7.12
2018-10-02T07:07:14.289Z,7.19
2018-10-02T07:09:42.382Z,7.25
2018-10-02T07:12:10.476Z,7.12
2018-10-02T07:14:38.604Z,7.01
2018-10-02T07:17:07.029Z,7.09
2018-10-02T07:19:35.183Z,7.09
2018-10-02T07:22:03.251Z,7.15
2018-10-02T07:24:31.323Z,7.16
2018-10-02T07:26:59.474Z,7.28
2018-10-02T07:29:27.567Z,7.27
2018-10-02T07:31:55.703Z,7.09
2018-10-02T07:34:23.816Z,7.07
2018-10-02T07:36:51.901Z,7.11
2018-10-02T07:39:20.032Z,7.00
2018-10-02T07:41:48.120Z,7.13
2018-10-02T07:44:16.173Z,7.20
2018-10-02T07:46:44.354Z,7.20
2018-10-02T07:49:12.451Z,7.32
2018-10-02T07:51:40.538Z,7.27
2018-10-02T07:54:08.895Z,7.26
2018-10-02T07:56:37.021Z,7.31
2018-10-02T07:59:05.482Z,7.28
2018-10-02T08:01:33.640Z,7.25
2018-10-02T08:04:01.731Z,7.40
2018-10-02T08:06:29.812Z,7.42
2018-10-02T08:08:57.929Z,7.20
2018-10-02T08:11:26.074Z,7.43
2018-10-02T08:13:54.124Z,7.42
2018-10-02T08:16:22.234Z,7.27
2018-10-02T08:18:50.275Z,7.25
2018-10-02T08:21:18.376Z,7.40
2018-10-02T08:23:46.486Z,7.29
2018-10-02T08:26:14.556Z,7.23
2018-10-02T08:28:42.650Z,7.23
2018-10-02T08:31:10.767Z,7.19
2018-10-02T08:33:38.858Z,7.30
2018-10-02T08:36:07.079Z,7.27
2018-10-02T08:38:35.051Z,7.32
2018-10-02T08:41:03.117Z,7.31
2018-10-02T08:43:31.242Z,7.48
2018-10-02T08:45:59.280Z,7.30
2018-10-02T08:48:27.371Z,7.24
2018-10-02T08:50:55.517Z,7.23
2018-10-02T08:53:24.402Z,7.31
2018-10-02T08:55:54.546Z,7.14
2018-10-02T08:58:22.643Z,7.18
2018-10-02T09:00:50.732Z,7.14
2018-10-02T09:03:18.934Z,7.19
2018-10-02T09:05:46.916Z,7.30
2018-10-02T09:08:15.017Z,7.30
2018-10-02T09:10:43.106Z,7.28
2018-10-02T09:14:15.556Z,7.31
2018-10-02T09:16:43.743Z,7.28
2018-10-02T09:19:11.678Z,7.27
2018-10-02T09:21:39.813Z,7.26
2018-10-02T09:24:07.871Z,7.24
2018-10-02T09:26:35.944Z,7.41
2018-10-02T09:29:04.018Z,7.31
2018-10-02T09:31:37.577Z,7.38
2018-10-02T09:34:11.095Z,7.23
2018-10-02T09:36:44.647Z,7.31
2018-10-02T09:39:18.062Z,7.34
2018-10-02T09:41:51.791Z,7.48
2018-10-02T09:44:19.897Z,7.41
2018-10-02T09:46:47.971Z,7.40
2018-10-02T09:49:16.076Z,7.42
2018-10-02T09:51:44.202Z,7.41
2018-10-02T09:54:12.211Z,7.45
2018-10-02T09:56:44.476Z,7.47
2018-10-02T09:59:13.753Z,7.57
2018-10-02T10:01:47.207Z,7.58
2018-10-02T10:04:15.918Z,7.62
2018-10-02T10:06:43.990Z,7.51
2018-10-02T10:09:12.612Z,7.56
2018-10-02T10:11:41.428Z,7.65
2018-10-02T10:14:09.790Z,7.66
2018-10-02T10:16:38.009Z,7.67
2018-10-02T10:19:06.211Z,7.75
2018-10-02T10:21:34.316Z,7.77
2018-10-02T10:24:02.468Z,7.73
2018-10-02T10:26:30.602Z,7.70
2018-10-02T10:28:58.741Z,7.68
2018-10-02T10:31:26.859Z,7.75
2018-10-02T10:33:54.940Z,7.75
2018-10-02T10:36:23.031Z,7.83
2018-10-02T10:38:51.120Z,7.77
2018-10-02T10:41:19.184Z,7.84
2018-10-02T10:43:47.263Z,7.93
2018-10-02T10:46:15.332Z,7.95
2018-10-02T10:48:43.410Z,8.06
2018-10-02T10:51:11.490Z,8.09
2018-10-02T10:53:39.616Z,8.10
2018-10-02T10:56:07.746Z,8.04
2018-10-02T10:58:35.830Z,8.08
2018-10-02T11:01:03.902Z,8.08
2018-10-02T11:03:32.016Z,8.27
2018-10-02T11:06:00.158Z,8.17
2018-10-02T11:08:28.226Z,8.11
2018-10-02T11:10:56.347Z,8.13
2018-10-02T11:13:24.423Z,8.18
2018-10-02T11:15:52.533Z,8.13
2018-10-02T11:18:20.626Z,8.25
2018-10-02T11:20:48.707Z,8.40
2018-10-02T11:23:16.771Z,8.32
2018-10-02T11:25:44.952Z,8.29
2018-10-02T11:28:14.689Z,8.27
2018-10-02T11:30:42.799Z,8.30
2018-10-02T11:33:10.918Z,8.31
2018-10-02T11:35:39.025Z,8.40
2018-10-02T11:38:07.141Z,8.33
2018-10-02T11:40:35.274Z,8.28
2018-10-02T11:43:03.399Z,8.38
2018-10-02T11:45:31.470Z,8.46
2018-10-02T11:47:59.556Z,8.47
2018-10-02T11:50:27.711Z,8.57
2018-10-02T11:52:55.812Z,8.49
2018-10-02T11:55:23.986Z,8.45
2018-10-02T11:57:52.045Z,8.53
2018-10-02T12:00:20.206Z,8.53
2018-10-02T12:02:48.264Z,8.49
2018-10-02T12:05:16.388Z,8.51
2018-10-02T12:07:44.509Z,8.52
2018-10-02T12:10:12.614Z,8.65
2018-10-02T12:12:40.743Z,8.65
2018-10-02T12:15:08.856Z,8.65
2018-10-02T12:17:36.961Z,8.68
2018-10-02T12:20:05.272Z,8.75
2018-10-02T12:22:33.383Z,8.83
2018-10-02T12:25:01.484Z,8.82
2018-10-02T12:27:29.614Z,8.86
2018-10-02T12:29:57.730Z,8.87
2018-10-02T12:32:25.791Z,8.88
2018-10-02T12:34:53.893Z,8.95
2018-10-02T12:37:22.108Z,8.95
2018-10-02T12:39:50.232Z,8.98
2018-10-02T12:42:18.323Z,9.03
2018-10-02T12:44:46.437Z,9.03
2018-10-02T12:47:14.561Z,9.13
2018-10-02T12:49:42.696Z,9.08
2018-10-02T12:52:10.825Z,9.12
2018-10-02T12:54:38.932Z,9.15
2018-10-02T12:57:07.065Z,9.18
2018-10-02T12:59:35.152Z,9.29
2018-10-02T13:02:03.231Z,9.38
2018-10-02T13:04:31.355Z,9.33
2018-10-02T13:06:59.445Z,9.39
2018-10-02T13:09:27.555Z,9.40
2018-10-02T13:11:55.656Z,9.48
2018-10-02T13:14:23.747Z,9.44
2018-10-02T13:16:51.835Z,9.45
2018-10-02T13:19:19.947Z,9.54
2018-10-02T13:21:48.054Z,9.51
2018-10-02T13:24:16.144Z,9.55
2018-10-02T13:26:44.247Z,9.65
2018-10-02T13:29:12.365Z,9.67
2018-10-02T13:31:40.447Z,9.66
2018-10-02T13:34:08.584Z,9.67
2018-10-02T13:36:36.684Z,9.64
2018-10-02T13:39:07.036Z,9.75
2018-10-02T13:41:35.140Z,9.77
2018-10-02T13:44:03.227Z,9.82
2018-10-02T13:46:31.325Z,9.93
2018-10-02T13:48:59.460Z,9.96
2018-10-02T13:51:27.542Z,9.95
2018-10-02T13:53:55.648Z,10.02
2018-10-02T13:56:23.764Z,10.04
2018-10-02T13:58:51.866Z,10.02
2018-10-02T14:01:20.051Z,9.97
2018-10-02T14:03:48.082Z,10.01
2018-10-02T14:06:16.208Z,10.00
2018-10-02T14:08:44.287Z,10.04
2018-10-02T14:11:12.402Z,10.02
2018-10-02T14:13:41.122Z,10.09
2018-10-02T14:16:09.268Z,10.18
2018-10-02T14:18:37.348Z,10.24
2018-10-02T14:21:05.436Z,10.35
2018-10-02T14:23:33.527Z,10.43
2018-10-02T14:26:01.706Z,10.50
2018-10-02T14:28:29.756Z,10.52
2018-10-02T14:30:57.879Z,10.64
2018-10-02T14:33:25.982Z,10.68
2018-10-02T14:35:54.083Z,10.69
2018-10-02T14:38:22.156Z,10.77
2018-10-02T14:40:50.234Z,10.70
2018-10-02T14:43:18.457Z,10.72
2018-10-02T14:45:46.479Z,10.74
2018-10-02T14:48:14.570Z,10.85
2018-10-02T14:50:42.679Z,10.87
2018-10-02T14:53:10.767Z,10.92
2018-10-02T14:55:39.079Z,10.90
2018-10-02T14:58:07.174Z,10.91
2018-10-02T15:00:35.735Z,10.94
2018-10-02T15:03:03.847Z,10.94
2018-10-02T15:05:31.926Z,10.94
2018-10-02T15:08:00.054Z,10.95
2018-10-02T15:10:28.179Z,11.04
2018-10-02T15:12:56.275Z,11.01
2018-10-02T15:15:24.375Z,11.02
2018-10-02T15:17:52.509Z,11.14
2018-10-02T15:20:20.611Z,11.15
2018-10-02T15:22:48.747Z,11.20
2018-10-02T15:25:16.859Z,11.20
2018-10-02T15:27:44.944Z,11.18
2018-10-02T15:30:13.044Z,11.26
2018-10-02T15:32:41.175Z,11.25
2018-10-02T15:35:09.249Z,11.17
2018-10-02T15:37:37.429Z,11.19
2018-10-02T15:40:05.403Z,11.27
2018-10-02T15:42:33.500Z,11.25
2018-10-02T15:45:01.612Z,11.21
2018-10-02T15:47:29.699Z,11.14
2018-10-02T15:49:57.832Z,11.15
2018-10-02T15:52:25.938Z,11.13
2018-10-02T15:54:54.015Z,11.12
2018-10-02T15:57:22.115Z,11.11
2018-10-02T15:59:50.173Z,11.03
2018-10-02T16:02:18.250Z,11.02
2018-10-02T16:04:46.352Z,10.96
2018-10-02T16:07:14.470Z,10.92
2018-10-02T16:09:42.588Z,10.89
2018-10-02T16:12:10.697Z,10.88
2018-10-02T16:14:38.815Z,10.86
2018-10-02T16:17:07.092Z,10.85
2018-10-02T16:19:35.171Z,10.78
2018-10-02T16:22:03.304Z,10.71
2018-10-02T16:24:31.367Z,10.69
2018-10-02T16:26:59.538Z,10.56
2018-10-02T16:29:27.647Z,10.59
2018-10-02T16:31:55.783Z,10.53
2018-10-02T16:34:23.920Z,10.59
2018-10-02T16:36:52.051Z,10.42
2018-10-02T16:39:20.179Z,10.45
2018-10-02T16:41:48.315Z,10.46
2018-10-02T16:44:16.380Z,10.34
2018-10-02T16:46:44.484Z,10.29
2018-10-02T16:49:12.547Z,10.33
2018-10-02T16:51:40.618Z,10.37
2018-10-02T16:54:08.718Z,10.36
2018-10-02T16:56:36.831Z,10.37
2018-10-02T16:59:05.043Z,10.35
2018-10-02T17:01:33.368Z,10.34
2018-10-02T17:04:01.483Z,10.28
2018-10-02T17:06:29.912Z,10.31
2018-10-02T17:08:57.974Z,10.33
2018-10-02T17:11:26.059Z,10.37
2018-10-02T17:13:54.146Z,10.36
2018-10-02T17:16:22.305Z,10.33
2018-10-02T17:18:50.404Z,10.28
2018-10-02T17:21:19.013Z,10.19
2018-10-02T17:23:47.135Z,10.14
2018-10-02T17:26:15.245Z,10.20
2018-10-02T17:28:43.423Z,10.15
2018-10-02T17:31:11.427Z,10.04
2018-10-02T17:38:36.842Z,10.08
2018-10-02T17:41:05.172Z,10.07
2018-10-02T17:43:35.335Z,10.09
2018-10-02T17:46:03.447Z,10.01
2018-10-02T17:48:33.467Z,10.02
2018-10-02T17:51:01.786Z,10.01
2018-10-02T17:53:35.573Z,10.01
2018-10-02T17:56:07.248Z,9.98
2018-10-02T17:58:39.499Z,9.96
2018-10-02T18:01:08.353Z,9.98
2018-10-02T18:03:38.686Z,9.99
2018-10-02T18:06:06.898Z,9.97
2018-10-02T18:08:35.084Z,9.92
2018-10-02T18:11:03.297Z,9.89
2018-10-02T18:13:31.394Z,9.90
2018-10-02T18:15:59.553Z,9.74
2018-10-02T18:18:27.663Z,9.80
2018-10-02T18:20:55.790Z,9.81
2018-10-02T18:23:23.948Z,9.82
2018-10-02T18:25:52.171Z,9.80
2018-10-02T18:28:20.326Z,9.80
2018-10-02T18:30:48.517Z,9.74
2018-10-02T18:33:16.846Z,9.85
2018-10-02T18:35:44.976Z,9.98
2018-10-02T18:38:13.152Z,9.92
2018-10-02T18:40:41.274Z,9.94
2018-10-02T18:43:09.397Z,9.89
2018-10-02T18:45:37.591Z,9.74
2018-10-02T18:48:05.675Z,9.73
2018-10-02T18:50:33.793Z,9.75
2018-10-02T18:53:01.894Z,9.74
2018-10-02T18:55:29.998Z,9.75
2018-10-02T18:57:58.052Z,9.71
2018-10-02T19:00:26.166Z,9.81
2018-10-02T19:02:54.404Z,9.86
2018-10-02T19:05:22.489Z,9.92
2018-10-02T19:07:50.563Z,9.86
2018-10-02T19:10:18.687Z,9.87
2018-10-02T19:12:46.741Z,9.91
2018-10-02T19:15:14.847Z,9.80
2018-10-02T19:17:42.985Z,9.69
2018-10-02T19:20:16.475Z,9.74
2018-10-02T19:22:44.559Z,9.63
2018-10-02T19:25:18.083Z,9.64
2018-10-02T19:27:46.147Z,9.69
2018-10-02T19:30:19.569Z,9.63
2018-10-02T19:32:47.633Z,9.64
2018-10-02T19:35:15.727Z,9.60
2018-10-02T19:37:49.177Z,9.63
2018-10-02T19:40:17.251Z,9.59
2018-10-02T19:42:45.336Z,9.61
2018-10-02T19:45:18.917Z,9.54
2018-10-02T19:47:46.995Z,9.60
2018-10-02T19:50:15.078Z,9.54
2018-10-02T19:52:43.147Z,9.62
2018-10-02T19:55:11.271Z,9.53
2018-10-02T19:57:39.342Z,9.60
2018-10-02T20:00:07.772Z,9.49
2018-10-02T20:02:35.847Z,9.44
2018-10-02T20:05:03.929Z,9.51
2018-10-02T20:07:32.051Z,9.54
2018-10-02T20:10:00.084Z,9.59
2018-10-02T20:12:28.142Z,9.63
2018-10-02T20:14:56.233Z,9.60
2018-10-02T20:17:24.321Z,9.58
2018-10-02T20:19:52.436Z,9.59
2018-10-02T20:22:20.530Z,9.58
2018-10-02T20:24:48.619Z,9.62
2018-10-02T20:27:16.772Z,9.57
2018-10-02T20:29:44.833Z,9.60
2018-10-02T20:32:12.939Z,9.60
2018-10-02T20:34:41.059Z,9.60
2018-10-02T20:37:09.182Z,9.58
2018-10-02T20:39:37.279Z,9.58
2018-10-02T20:42:05.400Z,9.63
2018-10-02T20:44:33.511Z,9.60
2018-10-02T20:47:01.678Z,9.58
2018-10-02T20:49:29.786Z,9.63
2018-10-02T20:51:57.863Z,9.60
2018-10-02T20:54:25.970Z,9.58
2018-10-02T20:56:54.039Z,9.60
2018-10-02T20:59:22.192Z,9.53
2018-10-02T21:01:50.295Z,9.58
2018-10-02T21:04:18.415Z,9.60
2018-10-02T21:06:46.496Z,9.57
2018-10-02T21:09:14.583Z,9.55
2018-10-02T21:11:42.688Z,9.58
2018-10-02T21:14:10.818Z,9.59
2018-10-02T21:16:38.898Z,9.53
2018-10-02T21:19:07.020Z,9.52
2018-10-02T21:21:35.135Z,9.45
2018-10-02T21:24:03.466Z,9.51
2018-10-02T21:26:31.864Z,9.43
2018-10-02T21:29:00.609Z,9.43
2018-10-02T21:31:28.699Z,9.44
2018-10-02T21:33:56.831Z,9.30
2018-10-02T21:36:24.971Z,9.32
2018-10-02T21:38:53.071Z,9.30
2018-10-02T21:41:21.215Z,9.34
2018-10-02T21:43:49.321Z,9.32
2018-10-02T21:46:17.427Z,9.32
2018-10-02T21:48:45.621Z,9.40
2018-10-02T21:51:13.723Z,9.34
2018-10-02T21:53:42.732Z,9.33
2018-10-02T21:56:10.826Z,9.31
2018-10-02T21:58:38.990Z,9.33
2018-10-02T22:01:07.092Z,9.20
2018-10-02T22:03:37.333Z,9.16
2018-10-02T22:06:05.411Z,9.26
2018-10-02T22:08:33.567Z,9.26
2018-10-02T22:11:01.652Z,9.21
2018-10-02T22:13:29.758Z,9.28
2018-10-02T22:15:58.150Z,9.23
2018-10-02T22:18:26.243Z,9.18
2018-10-02T22:20:54.347Z,9.17
2018-10-02T22:23:22.462Z,9.07
2018-10-02T22:25:50.572Z,9.09
2018-10-02T22:28:18.676Z,9.06
2018-10-02T22:30:46.759Z,9.03
2018-10-02T22:33:14.943Z,9.07
2018-10-02T22:35:42.967Z,9.08
2018-10-02T22:38:11.088Z,9.09
2018-10-02T22:40:39.206Z,9.04
2018-10-02T22:43:07.287Z,9.08
2018-10-02T22:45:35.373Z,9.04
2018-10-02T22:48:03.525Z,9.02
2018-10-02T22:50:31.780Z,8.95
2018-10-02T22:52:59.922Z,8.95
2018-10-02T22:55:28.023Z,8.89
2018-10-02T22:57:56.119Z,8.85
2018-10-02T23:00:24.420Z,8.91
2018-10-02T23:02:52.524Z,8.90
2018-10-02T23:05:20.647Z,8.92
2018-10-02T23:07:48.767Z,8.97
2018-10-02T23:10:16.908Z,8.99
2018-10-02T23:12:44.991Z,9.01
2018-10-02T23:15:13.120Z,9.09
2018-10-02T23:17:41.236Z,9.00
2018-10-02T23:20:09.383Z,9.04
2018-10-02T23:22:37.467Z,9.08
2018-10-02T23:25:05.580Z,9.08
2018-10-02T23:27:33.637Z,9.12
2018-10-02T23:30:01.770Z,9.09
2018-10-02T23:32:29.899Z,9.05
2018-10-02T23:34:58.000Z,9.07
2018-10-02T23:37:26.100Z,9.08
2018-10-02T23:39:54.215Z,9.03
2018-10-02T23:42:22.351Z,8.99
2018-10-02T23:44:50.457Z,9.05
2018-10-02T23:47:18.543Z,9.12
2018-10-02T23:49:46.648Z,9.10
2018-10-02T23:52:14.768Z,9.06
2018-10-02T23:54:42.859Z,9.09
2018-10-02T23:57:10.986Z,9.14
2018-10-02T23:59:39.031Z,9.07
